Time;durP1;ratioP1;P1;durP2;ratioP2;P2;SDS_P1;SDS_P2;PMS_P1;PMS_P2;Temp;Humidity;BMP_temperature;BMP_pressure;BME280_temperature;BME280_humidity;BME280_pressure;Samples;Min_cycle;Max_cycle;Signal;HPM_P1;HPM_P2
2022/12/22 03:27:37;;;;;;;13.00;2.88;;;;;;;;;;4922448;29;20038;-91
2022/12/22 03:30:03;;;;;;;13.50;3.15;;;;;;;;;;4922263;29;20031;-91
2022/12/22 03:32:28;;;;;;;13.85;3.25;;;;;;;;;;4922416;29;20638;-91
2022/12/22 03:34:53;;;;;;;13.32;3.42;;;;;;;;;;4922340;29;20019;-90
2022/12/22 03:37:19;;;;;;;15.98;4.30;;;;;;;;;;4924065;29;20114;-91
2022/12/22 03:39:47;;;;;;;15.00;3.03;;;;;;;;;;4922881;29;20024;-92
2022/12/22 03:47:40;;;;;;;16.35;3.03;;;;;;;;;;4924570;29;20773;-91
2022/12/22 03:50:06;;;;;;;14.40;3.45;;;;;;;;;;4925490;29;20845;-91
2022/12/22 03:52:31;;;;;;;16.25;3.30;;;;;;;;;;4923354;29;20024;-90
2022/12/22 03:54:56;;;;;;;18.08;3.70;;;;;;;;;;4922572;29;20114;-91
2022/12/22 03:57:22;;;;;;;16.88;3.92;;;;;;;;;;4928053;29;20038;-91
2022/12/22 03:59:47;;;;;;;14.90;3.03;;;;;;;;;;4918315;29;20023;-91
2022/12/22 04:02:12;;;;;;;13.65;4.45;;;;;;;;;;4922740;29;20480;-91
2022/12/22 04:04:38;;;;;;;19.52;4.20;;;;;;;;;;4917469;29;20040;-90
2022/12/22 04:07:03;;;;;;;16.55;3.63;;;;;;;;;;4919843;29;20032;-91
2022/12/22 04:09:28;;;;;;;18.48;4.40;;;;;;;;;;4921770;29;20024;-91
2022/12/22 04:14:38;;;;;;;24.33;6.65;;;;;;;;;;4918735;29;20031;-91
2022/12/22 04:17:06;;;;;;;16.98;5.03;;;;;;;;;;4917941;29;20015;-91
2022/12/22 04:19:31;;;;;;;17.10;4.63;;;;;;;;;;4921018;29;20027;-90
2022/12/22 04:21:57;;;;;;;18.92;3.65;;;;;;;;;;4920396;29;20091;-90
2022/12/22 04:24:22;;;;;;;16.92;3.47;;;;;;;;;;4920138;29;21658;-90
2022/12/22 04:26:48;;;;;;;13.23;2.85;;;;;;;;;;4920099;29;20039;-91
2022/12/22 04:29:13;;;;;;;14.75;2.78;;;;;;;;;;4923767;29;21804;-90
2022/12/22 04:31:38;;;;;;;13.40;2.50;;;;;;;;;;4921067;29;20087;-90
2022/12/22 04:34:04;;;;;;;14.45;2.58;;;;;;;;;;4920671;29;20032;-90
2022/12/22 04:36:29;;;;;;;10.60;2.40;;;;;;;;;;4921624;29;20031;-91
2022/12/22 04:38:54;;;;;;;13.27;2.70;;;;;;;;;;4920462;29;20066;-90
2022/12/22 04:41:21;;;;;;;14.63;3.67;;;;;;;;;;4920124;29;20032;-91
2022/12/22 04:43:46;;;;;;;17.00;3.15;;;;;;;;;;4919313;29;20087;-91
2022/12/22 04:46:12;;;;;;;18.80;3.10;;;;;;;;;;4915787;29;20044;-91
2022/12/22 04:48:37;;;;;;;15.40;3.63;;;;;;;;;;4918193;29;20810;-91
2022/12/22 04:51:03;;;;;;;16.58;3.25;;;;;;;;;;4919940;29;20310;-92
2022/12/22 04:53:29;;;;;;;20.33;3.15;;;;;;;;;;4917387;29;20475;-91
2022/12/22 04:55:56;;;;;;;13.82;3.20;;;;;;;;;;4919464;29;20075;-90
2022/12/22 04:58:22;;;;;;;14.35;3.47;;;;;;;;;;4918227;29;20039;-91
2022/12/22 05:00:47;;;;;;;18.35;3.67;;;;;;;;;;4925167;29;20034;-91
2022/12/22 05:03:12;;;;;;;16.10;4.32;;;;;;;;;;4917829;29;20060;-91
2022/12/22 05:05:38;;;;;;;13.43;4.55;;;;;;;;;;4919576;29;20493;-91
2022/12/22 05:08:04;;;;;;;18.00;5.55;;;;;;;;;;4921951;29;20494;-91
2022/12/22 05:10:29;;;;;;;17.85;5.70;;;;;;;;;;4917119;29;20028;-92
2022/12/22 05:12:54;;;;;;;20.90;6.60;;;;;;;;;;4929640;28;20039;-92
2022/12/22 05:15:24;;;;;;;23.38;6.70;;;;;;;;;;4919647;29;20506;-92
2022/12/22 05:17:53;;;;;;;19.00;6.55;;;;;;;;;;4938796;29;20230;-92
2022/12/22 05:20:18;;;;;;;21.38;7.60;;;;;;;;;;4942748;29;20119;-92
2022/12/22 05:22:44;;;;;;;19.92;7.05;;;;;;;;;;4921471;29;20215;-92
2022/12/22 05:25:09;;;;;;;21.38;7.32;;;;;;;;;;4921101;29;20045;-91
2022/12/22 05:27:35;;;;;;;27.00;9.00;;;;;;;;;;4925813;29;20071;-92
2022/12/22 05:30:00;;;;;;;21.80;8.25;;;;;;;;;;4942705;29;20024;-92
2022/12/22 05:32:26;;;;;;;22.33;8.48;;;;;;;;;;4937294;29;20387;-91
2022/12/22 05:34:51;;;;;;;22.15;8.00;;;;;;;;;;4925883;29;20435;-91
2022/12/22 05:37:16;;;;;;;22.85;7.47;;;;;;;;;;4922996;29;20131;-91
2022/12/22 05:39:44;;;;;;;22.88;7.55;;;;;;;;;;4919512;29;20135;-91
2022/12/22 05:42:09;;;;;;;22.38;8.77;;;;;;;;;;4921857;29;20051;-90
2022/12/22 05:44:35;;;;;;;19.55;7.97;;;;;;;;;;4922842;29;20530;-91
2022/12/22 05:47:00;;;;;;;20.52;8.23;;;;;;;;;;4921369;29;20336;-91
2022/12/22 05:49:28;;;;;;;20.85;8.35;;;;;;;;;;4922753;29;20032;-92
2022/12/22 05:51:54;;;;;;;21.58;7.55;;;;;;;;;;4919629;29;20027;-92
2022/12/22 05:54:22;;;;;;;27.67;7.95;;;;;;;;;;4921519;29;20038;-90
2022/12/22 05:56:48;;;;;;;20.00;6.93;;;;;;;;;;4920973;29;20062;-90
2022/12/22 05:59:13;;;;;;;16.35;5.90;;;;;;;;;;4919396;29;20023;-91
2022/12/22 06:01:38;;;;;;;19.77;6.40;;;;;;;;;;4917402;29;20086;-91
2022/12/22 06:04:04;;;;;;;19.27;6.40;;;;;;;;;;4918069;29;20067;-90
2022/12/22 06:06:31;;;;;;;15.52;5.90;;;;;;;;;;4922368;29;20031;-91
2022/12/22 06:08:56;;;;;;;16.73;6.43;;;;;;;;;;4916325;29;20122;-91
2022/12/22 06:11:22;;;;;;;84.78;10.13;;;;;;;;;;4923401;29;20115;-91
2022/12/22 06:13:47;;;;;;;182.25;15.82;;;;;;;;;;4927052;29;20383;-91
2022/12/22 06:16:13;;;;;;;64.05;9.50;;;;;;;;;;4919548;29;20034;-92
2022/12/22 06:18:42;;;;;;;29.95;6.70;;;;;;;;;;4920123;29;20070;-92
2022/12/22 06:21:07;;;;;;;16.35;4.88;;;;;;;;;;4923561;29;20082;-92
2022/12/22 06:23:32;;;;;;;45.50;6.97;;;;;;;;;;4920548;29;20664;-92
2022/12/22 06:25:59;;;;;;;16.02;5.32;;;;;;;;;;4920658;29;20046;-91
2022/12/22 06:28:25;;;;;;;20.27;4.78;;;;;;;;;;4923131;29;20031;-90
2022/12/22 06:30:53;;;;;;;31.75;6.43;;;;;;;;;;4921478;29;20131;-89
2022/12/22 06:33:19;;;;;;;15.23;4.32;;;;;;;;;;4917352;29;20609;-91
2022/12/22 06:35:44;;;;;;;17.33;5.05;;;;;;;;;;4920995;29;20063;-91
2022/12/22 06:38:10;;;;;;;13.23;4.22;;;;;;;;;;4927056;29;20079;-92
2022/12/22 06:40:35;;;;;;;22.23;5.15;;;;;;;;;;4921803;29;20027;-91
2022/12/22 06:43:09;;;;;;;13.70;4.35;;;;;;;;;;4918753;29;20022;-90
2022/12/22 06:45:39;;;;;;;18.15;3.88;;;;;;;;;;4926019;29;20131;-91
2022/12/22 06:48:05;;;;;;;12.80;3.60;;;;;;;;;;4921551;29;20166;-91
2022/12/22 06:50:35;;;;;;;11.55;4.10;;;;;;;;;;4922689;29;20166;-91
2022/12/22 06:53:02;;;;;;;11.38;3.80;;;;;;;;;;4924756;29;20024;-90
2022/12/22 06:55:28;;;;;;;14.18;3.97;;;;;;;;;;4924534;29;20030;-92
2022/12/22 06:57:53;;;;;;;16.92;4.22;;;;;;;;;;4924043;29;20639;-91
2022/12/22 07:00:19;;;;;;;13.95;3.90;;;;;;;;;;4921823;29;20492;-91
2022/12/22 07:02:45;;;;;;;10.07;3.97;;;;;;;;;;4926243;29;20071;-91
2022/12/22 07:05:10;;;;;;;10.32;3.90;;;;;;;;;;4928837;29;20039;-92
2022/12/22 07:07:39;;;;;;;13.50;3.95;;;;;;;;;;4924276;29;20031;-91
2022/12/22 07:10:04;;;;;;;12.60;3.88;;;;;;;;;;4929285;29;20074;-91
2022/12/22 07:12:30;;;;;;;10.93;3.50;;;;;;;;;;4927199;29;20035;-92
2022/12/22 07:14:55;;;;;;;12.38;3.60;;;;;;;;;;4921959;29;20024;-91
2022/12/22 07:17:21;;;;;;;10.57;3.80;;;;;;;;;;4920546;29;20124;-92
2022/12/22 07:19:46;;;;;;;9.68;3.40;;;;;;;;;;4921021;29;20030;-92
2022/12/22 07:22:11;;;;;;;13.80;3.70;;;;;;;;;;4922957;29;20651;-91
2022/12/22 07:24:39;;;;;;;18.85;4.20;;;;;;;;;;4920676;29;20040;-92
2022/12/22 07:27:05;;;;;;;10.52;3.28;;;;;;;;;;4918950;29;20039;-91
2022/12/22 07:29:31;;;;;;;113.65;10.90;;;;;;;;;;4922319;29;20026;-91
2022/12/22 07:31:56;;;;;;;16.10;4.38;;;;;;;;;;4924476;29;20127;-92
2022/12/22 07:34:21;;;;;;;17.90;3.70;;;;;;;;;;4923994;29;20027;-91
2022/12/22 07:36:47;;;;;;;9.85;3.75;;;;;;;;;;4930099;29;20043;-92
2022/12/22 07:39:12;;;;;;;11.38;3.92;;;;;;;;;;4936892;29;20039;-93
2022/12/22 07:44:22;;;;;;;20.10;4.47;;;;;;;;;;4929734;29;20870;-93
2022/12/22 07:46:48;;;;;;;16.60;4.72;;;;;;;;;;4919743;29;20051;-92
2022/12/22 07:51:57;;;;;;;11.40;3.97;;;;;;;;;;4943757;29;20103;-92
2022/12/22 07:54:23;;;;;;;14.38;4.38;;;;;;;;;;4925811;29;20364;-92
2022/12/22 07:56:48;;;;;;;14.68;4.32;;;;;;;;;;4922864;29;20480;-93
2022/12/22 07:59:14;;;;;;;13.18;4.50;;;;;;;;;;4928531;29;20550;-93
2022/12/22 08:01:40;;;;;;;11.48;4.50;;;;;;;;;;4927962;29;20031;-93
2022/12/22 08:04:06;;;;;;;11.68;4.03;;;;;;;;;;4938998;29;20058;-93
2022/12/22 08:06:33;;;;;;;13.52;4.75;;;;;;;;;;4924890;29;20023;-93
2022/12/22 08:08:58;;;;;;;26.95;5.72;;;;;;;;;;4926044;29;20046;-94
2022/12/22 08:11:24;;;;;;;13.68;4.88;;;;;;;;;;4928653;29;20020;-93
2022/12/22 08:13:49;;;;;;;16.83;5.65;;;;;;;;;;4922490;29;20028;-94
2022/12/22 08:16:15;;;;;;;10.27;4.10;;;;;;;;;;4920998;29;20032;-94
2022/12/22 08:18:40;;;;;;;17.13;4.28;;;;;;;;;;4923341;29;20031;-94
2022/12/22 08:21:06;;;;;;;10.93;3.25;;;;;;;;;;4926893;29;20158;-93
2022/12/22 08:23:32;;;;;;;9.45;3.10;;;;;;;;;;4924440;29;20094;-93
2022/12/22 08:26:00;;;;;;;8.38;2.95;;;;;;;;;;4923184;29;20360;-94
2022/12/22 08:28:26;;;;;;;9.15;2.90;;;;;;;;;;4924581;29;20642;-94
2022/12/22 08:30:54;;;;;;;8.10;2.65;;;;;;;;;;4920594;29;20114;-90
2022/12/22 08:33:19;;;;;;;8.38;2.95;;;;;;;;;;4921473;29;20154;-91
2022/12/22 08:35:45;;;;;;;9.57;2.55;;;;;;;;;;4921239;29;20585;-91
2022/12/22 08:38:11;;;;;;;8.50;2.60;;;;;;;;;;4922250;29;20028;-91
2022/12/22 08:40:37;;;;;;;8.45;2.38;;;;;;;;;;4923719;29;20629;-91
2022/12/22 08:43:06;;;;;;;8.02;2.33;;;;;;;;;;4922009;29;20063;-93
2022/12/22 08:45:32;;;;;;;7.38;1.92;;;;;;;;;;4922605;29;20500;-90
2022/12/22 08:47:57;;;;;;;101.32;6.78;;;;;;;;;;4924594;29;20107;-92
2022/12/22 08:50:22;;;;;;;6.75;2.30;;;;;;;;;;4924220;29;20027;-92
2022/12/22 08:52:48;;;;;;;7.32;2.33;;;;;;;;;;4928845;29;20028;-90
2022/12/22 08:55:19;;;;;;;184.57;15.40;;;;;;;;;;4925596;29;20024;-91
2022/12/22 08:57:48;;;;;;;8.38;2.70;;;;;;;;;;4926147;29;20032;-91
2022/12/22 09:00:13;;;;;;;8.45;2.55;;;;;;;;;;4916565;29;20032;-91
2022/12/22 09:02:39;;;;;;;8.90;3.30;;;;;;;;;;4919790;29;20054;-92
2022/12/22 09:05:04;;;;;;;8.85;2.70;;;;;;;;;;4923153;29;20027;-91
2022/12/22 09:07:37;;;;;;;8.23;3.25;;;;;;;;;;4923724;29;20415;-92
2022/12/22 09:10:10;;;;;;;10.10;3.30;;;;;;;;;;4920751;29;20076;-94
2022/12/22 09:12:39;;;;;;;10.40;3.55;;;;;;;;;;4919931;29;20040;-93
2022/12/22 09:15:05;;;;;;;9.63;3.20;;;;;;;;;;4922925;29;20079;-93
2022/12/22 09:17:31;;;;;;;12.02;3.38;;;;;;;;;;4921981;29;20032;-93
2022/12/22 09:20:05;;;;;;;14.00;4.07;;;;;;;;;;4920264;29;20024;-93
2022/12/22 09:22:32;;;;;;;9.00;3.35;;;;;;;;;;4925670;29;20031;-93
2022/12/22 09:24:57;;;;;;;10.60;3.80;;;;;;;;;;4927966;29;20024;-93
2022/12/22 09:27:23;;;;;;;50.42;6.30;;;;;;;;;;4917774;29;20175;-92
2022/12/22 09:29:51;;;;;;;13.88;3.72;;;;;;;;;;4918885;29;20555;-93
2022/12/22 09:32:17;;;;;;;18.80;4.50;;;;;;;;;;4927310;29;20046;-92
2022/12/22 09:34:44;;;;;;;20.73;4.38;;;;;;;;;;4923267;29;20024;-93
2022/12/22 09:37:13;;;;;;;11.35;4.22;;;;;;;;;;4920721;29;20914;-92
2022/12/22 09:39:44;;;;;;;10.63;4.32;;;;;;;;;;4925341;29;20028;-92
2022/12/22 09:42:14;;;;;;;10.63;4.18;;;;;;;;;;4924688;29;20020;-93
2022/12/22 09:44:43;;;;;;;10.90;4.15;;;;;;;;;;4925226;29;20114;-92
2022/12/22 09:47:20;;;;;;;10.00;3.55;;;;;;;;;;4928643;29;20027;-92
2022/12/22 09:49:49;;;;;;;9.93;3.75;;;;;;;;;;4923673;29;20122;-93
2022/12/22 09:52:27;;;;;;;14.90;3.92;;;;;;;;;;4926718;29;20154;-92
2022/12/22 09:55:12;;;;;;;9.43;3.75;;;;;;;;;;4934511;29;20020;-96
2022/12/22 09:57:47;;;;;;;13.50;3.83;;;;;;;;;;4952744;29;20036;-96
2022/12/22 10:03:32;;;;;;;10.95;4.13;;;;;;;;;;4946630;23;20063;-96
2022/12/22 10:06:02;;;;;;;14.18;4.20;;;;;;;;;;4903249;29;20047;-96
2022/12/22 10:08:33;;;;;;;11.82;4.05;;;;;;;;;;4901179;29;20028;-94
2022/12/22 10:10:58;;;;;;;20.45;4.53;;;;;;;;;;4909844;29;20464;-95
2022/12/22 10:13:24;;;;;;;9.18;3.42;;;;;;;;;;4909382;29;20043;-93
2022/12/22 10:15:50;;;;;;;9.57;3.63;;;;;;;;;;4906599;29;20076;-95
2022/12/22 10:18:16;;;;;;;10.02;3.65;;;;;;;;;;4905355;29;20028;-94
2022/12/22 10:20:43;;;;;;;11.63;4.20;;;;;;;;;;4910894;29;20024;-94
2022/12/22 10:23:26;;;;;;;11.05;3.95;;;;;;;;;;4910497;29;20271;-96
2022/12/22 10:25:55;;;;;;;16.58;4.97;;;;;;;;;;4909398;29;20028;-95
2022/12/22 10:28:25;;;;;;;11.02;3.85;;;;;;;;;;4910425;29;20032;-96
2022/12/22 10:31:12;;;;;;;30.92;5.72;;;;;;;;;;4911095;29;20577;-95
2022/12/22 10:33:41;;;;;;;12.80;4.55;;;;;;;;;;4892819;29;20048;-95
2022/12/22 10:36:06;;;;;;;10.57;4.43;;;;;;;;;;4903320;29;20024;-93
2022/12/22 10:38:34;;;;;;;12.88;4.53;;;;;;;;;;4899540;29;20028;-93
2022/12/22 10:41:14;;;;;;;10.05;3.83;;;;;;;;;;4902707;29;20079;-93
2022/12/22 10:43:45;;;;;;;10.30;4.03;;;;;;;;;;4921290;29;20024;-93
2022/12/22 10:46:10;;;;;;;16.38;4.05;;;;;;;;;;4904069;29;20139;-93
2022/12/22 10:48:37;;;;;;;10.23;3.50;;;;;;;;;;4900653;29;20164;-94
2022/12/22 10:51:06;;;;;;;9.45;3.45;;;;;;;;;;4904975;29;20752;-92
2022/12/22 10:53:49;;;;;;;8.40;3.00;;;;;;;;;;4903093;29;20035;-92
2022/12/22 10:56:26;;;;;;;36.00;4.18;;;;;;;;;;4901648;29;20028;-93
2022/12/22 10:58:51;;;;;;;7.82;2.45;;;;;;;;;;4900981;29;20051;-95
2022/12/22 11:01:24;;;;;;;24.27;3.97;;;;;;;;;;4901518;29;20048;-94
2022/12/22 11:03:49;;;;;;;7.95;2.95;;;;;;;;;;4901219;29;20076;-95
2022/12/22 11:06:14;;;;;;;8.23;2.63;;;;;;;;;;4901119;29;20068;-94
2022/12/22 11:08:40;;;;;;;8.68;2.85;;;;;;;;;;4904101;29;20477;-93
2022/12/22 11:11:05;;;;;;;9.65;3.17;;;;;;;;;;4919522;29;20036;-92
2022/12/22 11:13:51;;;;;;;8.93;3.40;;;;;;;;;;4917261;29;20040;-93
2022/12/22 11:16:36;;;;;;;8.52;2.72;;;;;;;;;;4926572;29;20284;-94
2022/12/22 11:19:06;;;;;;;9.20;3.10;;;;;;;;;;4907313;29;20020;-95
2022/12/22 11:21:38;;;;;;;8.15;3.05;;;;;;;;;;4913759;29;20020;-94
2022/12/22 11:24:20;;;;;;;8.85;2.83;;;;;;;;;;4928138;29;20023;-95
2022/12/22 11:26:55;;;;;;;9.73;3.50;;;;;;;;;;4916641;29;20028;-95
2022/12/22 11:29:55;;;;;;;10.32;3.47;;;;;;;;;;4925165;29;20024;-95
2022/12/22 11:32:28;;;;;;;8.35;3.08;;;;;;;;;;4910112;29;20555;-94
2022/12/22 11:35:01;;;;;;;7.93;2.50;;;;;;;;;;4910556;29;20032;-95
2022/12/22 11:37:40;;;;;;;7.65;2.28;;;;;;;;;;4903527;29;20029;-95
2022/12/22 11:40:23;;;;;;;7.43;2.40;;;;;;;;;;4913434;29;20096;-96
2022/12/22 11:42:54;;;;;;;7.85;2.40;;;;;;;;;;4907795;29;20500;-95
2022/12/22 11:45:31;;;;;;;8.00;2.88;;;;;;;;;;4908102;29;20115;-95
2022/12/22 11:48:29;;;;;;;7.82;2.63;;;;;;;;;;4908396;29;20155;-96
2022/12/22 11:50:56;;;;;;;8.13;2.80;;;;;;;;;;4910279;29;20484;-95
2022/12/22 11:53:42;;;;;;;9.00;2.97;;;;;;;;;;4908665;29;20024;-96
2022/12/22 11:56:14;;;;;;;8.60;3.17;;;;;;;;;;4906171;29;20035;-95
2022/12/22 11:58:45;;;;;;;9.00;3.00;;;;;;;;;;4905834;29;20021;-96
2022/12/22 12:01:29;;;;;;;9.55;3.10;;;;;;;;;;4908771;29;20025;-95
2022/12/22 12:04:03;;;;;;;8.45;2.92;;;;;;;;;;4907413;29;20428;-96
2022/12/22 12:06:47;;;;;;;10.05;3.00;;;;;;;;;;4907126;29;20713;-95
2022/12/22 12:09:12;;;;;;;;;;;;;;;;;;4908292;29;20020;-95
2022/12/22 12:11:37;;;;;;;9.63;2.97;;;;;;;;;;4903844;29;19922;-94
2022/12/22 12:14:14;;;;;;;7.03;2.17;;;;;;;;;;4905959;29;20326;-94
2022/12/22 12:16:50;;;;;;;8.30;2.90;;;;;;;;;;4908377;29;20280;-96
2022/12/22 12:19:31;;;;;;;11.35;3.65;;;;;;;;;;4908334;29;20028;-96
2022/12/22 12:22:11;;;;;;;10.93;3.72;;;;;;;;;;4909110;29;20542;-96
2022/12/22 12:24:45;;;;;;;8.98;3.17;;;;;;;;;;4904069;29;20455;-96
2022/12/22 12:27:20;;;;;;;404.83;26.95;;;;;;;;;;4902090;29;20105;-96
2022/12/22 12:29:59;;;;;;;163.55;14.25;;;;;;;;;;4907135;29;20028;-96
2022/12/22 12:32:28;;;;;;;180.82;14.25;;;;;;;;;;4908720;29;20028;-95
2022/12/22 12:35:02;;;;;;;157.05;11.95;;;;;;;;;;4907855;29;20424;-95
2022/12/22 12:37:35;;;;;;;9.88;3.78;;;;;;;;;;4905951;29;20092;-90
2022/12/22 12:40:01;;;;;;;8.93;3.08;;;;;;;;;;4923271;29;20038;-96
2022/12/22 12:42:34;;;;;;;7.80;2.90;;;;;;;;;;4904024;29;20044;-96
2022/12/22 12:45:27;;;;;;;8.07;2.60;;;;;;;;;;4906027;29;20370;-96
2022/12/22 12:48:13;;;;;;;12.82;4.35;;;;;;;;;;4924462;29;20417;-96
2022/12/22 12:50:38;;;;;;;13.80;4.25;;;;;;;;;;4905341;29;20028;-96
2022/12/22 12:53:05;;;;;;;11.13;4.05;;;;;;;;;;4913045;29;20032;-96
2022/12/22 12:55:53;;;;;;;10.15;4.13;;;;;;;;;;4918123;29;20173;-96
2022/12/22 12:58:37;;;;;;;11.07;3.75;;;;;;;;;;4896024;29;20127;-96
2022/12/22 13:01:08;;;;;;;10.80;4.22;;;;;;;;;;4904220;29;20469;-96
2022/12/22 13:03:42;;;;;;;12.95;4.57;;;;;;;;;;4903078;29;20670;-96
2022/12/22 13:06:09;;;;;;;10.77;4.05;;;;;;;;;;4903135;29;20028;-96
2022/12/22 13:08:47;;;;;;;13.20;5.07;;;;;;;;;;4906293;29;20492;-95
2022/12/22 13:11:13;;;;;;;14.57;5.03;;;;;;;;;;4904235;29;20036;-96
2022/12/22 13:13:46;;;;;;;16.10;5.45;;;;;;;;;;4901448;29;20898;-96
2022/12/22 13:16:12;;;;;;;12.13;5.18;;;;;;;;;;4903370;29;20111;-95
2022/12/22 13:18:37;;;;;;;16.25;5.10;;;;;;;;;;4909890;29;20564;-96
2022/12/22 13:21:24;;;;;;;15.07;5.47;;;;;;;;;;4900792;29;20393;-96
2022/12/22 13:23:55;;;;;;;16.85;6.03;;;;;;;;;;4901824;29;20278;-96
2022/12/22 13:26:22;;;;;;;12.57;5.03;;;;;;;;;;4903862;29;20766;-96
2022/12/22 13:28:52;;;;;;;11.60;3.72;;;;;;;;;;4905389;29;20466;-96
2022/12/22 13:31:19;;;;;;;10.93;3.47;;;;;;;;;;4907906;29;20028;-96
2022/12/22 13:33:45;;;;;;;10.25;3.35;;;;;;;;;;4911593;29;20039;-96
2022/12/22 13:36:21;;;;;;;12.13;3.55;;;;;;;;;;4923789;29;20024;-96
2022/12/22 13:39:18;;;;;;;10.40;3.47;;;;;;;;;;4915769;29;20040;-96
2022/12/22 13:41:45;;;;;;;12.82;3.78;;;;;;;;;;4909561;29;20044;-96
2022/12/22 13:44:14;;;;;;;40.03;8.60;;;;;;;;;;4912733;29;20028;-96
2022/12/22 13:46:39;;;;;;;390.83;27.75;;;;;;;;;;4930100;29;20016;-96
2022/12/22 13:49:08;;;;;;;10.98;3.40;;;;;;;;;;4925546;29;20084;-96
2022/12/22 13:51:35;;;;;;;10.00;3.33;;;;;;;;;;4910742;29;20055;-96
2022/12/22 13:54:02;;;;;;;8.77;3.25;;;;;;;;;;4915952;29;20048;-96
2022/12/22 13:56:45;;;;;;;10.27;3.63;;;;;;;;;;4935401;23;20060;-93
2022/12/22 13:59:29;;;;;;;10.13;3.28;;;;;;;;;;4901112;29;20024;-94
2022/12/22 14:07:24;;;;;;;37.50;5.65;;;;;;;;;;1326195;26;20515;-93
2022/12/22 14:09:54;;;;;;;8.75;3.17;;;;;;;;;;4928631;28;20043;-93
2022/12/22 14:12:28;;;;;;;11.05;3.30;;;;;;;;;;4927812;29;20039;-93
2022/12/22 14:14:59;;;;;;;11.85;3.75;;;;;;;;;;4934715;29;20106;-93
2022/12/22 14:17:42;;;;;;;9.90;3.38;;;;;;;;;;4931146;29;20027;-90
2022/12/22 14:20:24;;;;;;;9.73;3.50;;;;;;;;;;4948762;28;20081;-91
2022/12/22 14:23:13;;;;;;;13.95;3.85;;;;;;;;;;4943777;28;20027;-90
2022/12/22 14:25:47;;;;;;;17.60;4.82;;;;;;;;;;4915217;29;20043;-90
2022/12/22 14:28:41;;;;;;;12.27;4.25;;;;;;;;;;4933352;29;20055;-92
2022/12/22 14:31:07;;;;;;;78.28;8.25;;;;;;;;;;4929808;29;20023;-91
2022/12/22 14:33:34;;;;;;;32.08;5.78;;;;;;;;;;4951631;28;20081;-91
2022/12/22 14:36:15;;;;;;;22.48;5.95;;;;;;;;;;4928310;29;20114;-91
2022/12/22 14:38:57;;;;;;;86.25;9.95;;;;;;;;;;4943909;28;20015;-91
2022/12/22 14:41:41;;;;;;;17.77;4.95;;;;;;;;;;4944851;28;20023;-91
2022/12/22 14:44:29;;;;;;;14.15;5.43;;;;;;;;;;4927946;29;20035;-91
2022/12/22 14:47:21;;;;;;;111.93;10.82;;;;;;;;;;4927725;29;20031;-91
2022/12/22 14:50:24;;;;;;;434.48;29.83;;;;;;;;;;4918144;29;20145;-91
2022/12/22 14:52:51;;;;;;;364.83;27.30;;;;;;;;;;4893716;29;20033;-90
2022/12/22 14:55:22;;;;;;;386.33;28.38;;;;;;;;;;4890455;29;20035;-91
2022/12/22 14:57:53;;;;;;;377.23;27.75;;;;;;;;;;4891631;29;20025;-91
2022/12/22 15:00:21;;;;;;;310.02;25.33;;;;;;;;;;4877333;29;20036;-91
2022/12/22 15:02:51;;;;;;;311.23;25.23;;;;;;;;;;4897226;29;20061;-90
2022/12/22 15:05:47;;;;;;;;;;;;;;;;;;;;;
2022/12/22 15:08:32;;;;;;;194.30;17.23;;;;;;;;;;4886735;29;20060;-92
2022/12/22 15:11:01;;;;;;;215.75;20.20;;;;;;;;;;4893425;29;20021;-91
2022/12/22 15:13:30;;;;;;;218.00;20.15;;;;;;;;;;4872219;29;20136;-93
2022/12/22 15:15:56;;;;;;;249.85;21.23;;;;;;;;;;4878241;29;20036;-91
2022/12/22 15:18:26;;;;;;;225.88;21.80;;;;;;;;;;4878204;29;20500;-90
2022/12/22 15:20:55;;;;;;;266.33;24.20;;;;;;;;;;4877959;29;20063;-90
2022/12/22 15:23:26;;;;;;;263.83;21.75;;;;;;;;;;4866596;29;20136;-90
2022/12/22 15:26:00;;;;;;;205.75;18.90;;;;;;;;;;4888139;28;20063;-90
2022/12/22 15:28:25;;;;;;;331.52;26.38;;;;;;;;;;4931958;28;20046;-89
2022/12/22 15:30:53;;;;;;;333.73;29.70;;;;;;;;;;4935064;28;21336;-91
2022/12/22 15:33:19;;;;;;;469.30;37.75;;;;;;;;;;4929959;28;20039;-90
2022/12/22 15:35:48;;;;;;;508.77;48.55;;;;;;;;;;4949053;28;21666;-91
2022/12/22 15:38:23;;;;;;;513.25;39.58;;;;;;;;;;4950515;28;20031;-91
2022/12/22 15:40:50;;;;;;;562.00;44.42;;;;;;;;;;4931873;29;20023;-90
2022/12/22 15:43:16;;;;;;;539.08;42.17;;;;;;;;;;4934673;29;20063;-91
2022/12/22 15:45:42;;;;;;;533.95;42.20;;;;;;;;;;4932706;29;20070;-91
2022/12/22 15:48:13;;;;;;;610.78;48.65;;;;;;;;;;4952006;28;20066;-91
2022/12/22 15:50:40;;;;;;;488.85;36.22;;;;;;;;;;4950466;28;20466;-91
2022/12/22 15:53:13;;;;;;;472.42;35.33;;;;;;;;;;4933995;29;20031;-91
2022/12/22 15:55:43;;;;;;;368.08;26.88;;;;;;;;;;4932294;28;20042;-91
2022/12/22 15:58:22;;;;;;;483.35;36.63;;;;;;;;;;4934407;29;20027;-91
2022/12/22 16:00:48;;;;;;;428.63;34.30;;;;;;;;;;4951172;28;20083;-91
2022/12/22 16:03:13;;;;;;;456.13;34.05;;;;;;;;;;4948490;28;20036;-90
2022/12/22 16:05:40;;;;;;;569.40;43.47;;;;;;;;;;4949152;28;20023;-91
2022/12/22 16:08:16;;;;;;;583.33;46.67;;;;;;;;;;4922021;29;20055;-92
2022/12/22 16:10:42;;;;;;;523.47;41.67;;;;;;;;;;4931455;29;20039;-90
2022/12/22 16:13:10;;;;;;;693.85;54.28;;;;;;;;;;4930344;29;20059;-91
2022/12/22 16:15:35;;;;;;;630.95;50.70;;;;;;;;;;4928681;29;20066;-91
2022/12/22 16:18:01;;;;;;;571.10;43.60;;;;;;;;;;4930452;29;20455;-91
2022/12/22 16:20:28;;;;;;;418.77;33.55;;;;;;;;;;4913072;29;20166;-90
2022/12/22 16:22:56;;;;;;;510.50;37.92;;;;;;;;;;4932149;29;20320;-90
2022/12/22 16:25:28;;;;;;;599.47;46.50;;;;;;;;;;4909968;29;20086;-91
2022/12/22 16:27:56;;;;;;;604.08;44.92;;;;;;;;;;4922543;29;20028;-90
2022/12/22 16:30:28;;;;;;;738.28;55.45;;;;;;;;;;4928551;29;20028;-90
2022/12/22 16:32:54;;;;;;;751.17;58.70;;;;;;;;;;4928997;29;20030;-91
2022/12/22 16:35:21;;;;;;;846.10;62.95;;;;;;;;;;4913556;29;20036;-90
2022/12/22 16:37:50;;;;;;;848.35;63.53;;;;;;;;;;4914482;29;20030;-90
2022/12/22 16:40:21;;;;;;;579.00;46.65;;;;;;;;;;4928198;29;20042;-91
2022/12/22 16:42:56;;;;;;;741.55;54.53;;;;;;;;;;4907749;29;20109;-90
2022/12/22 16:45:32;;;;;;;720.05;53.97;;;;;;;;;;4906478;29;20031;-90
2022/12/22 16:47:58;;;;;;;763.17;59.70;;;;;;;;;;4927067;29;20043;-91
2022/12/22 16:50:31;;;;;;;754.10;55.88;;;;;;;;;;4929051;29;20024;-91
2022/12/22 16:52:58;;;;;;;726.43;55.90;;;;;;;;;;4911662;29;20055;-90
2022/12/22 16:55:34;;;;;;;722.17;55.40;;;;;;;;;;4912109;29;20063;-91
2022/12/22 16:58:03;;;;;;;838.63;63.30;;;;;;;;;;4926609;29;20019;-91
2022/12/22 17:00:33;;;;;;;482.27;33.53;;;;;;;;;;4926379;29;20046;-90
2022/12/22 17:03:02;;;;;;;637.78;47.75;;;;;;;;;;4910847;29;20098;-90
2022/12/22 17:05:49;;;;;;;450.83;29.45;;;;;;;;;;4907717;29;20031;-91
2022/12/22 17:08:21;;;;;;;438.25;31.17;;;;;;;;;;4909039;29;21087;-92
2022/12/22 17:10:47;;;;;;;386.77;29.80;;;;;;;;;;4925473;29;20031;-91
2022/12/22 17:13:12;;;;;;;389.23;28.98;;;;;;;;;;4912844;29;20044;-91
2022/12/22 17:15:38;;;;;;;336.15;25.48;;;;;;;;;;4929806;29;20099;-91
2022/12/22 17:18:26;;;;;;;494.05;37.95;;;;;;;;;;4909912;29;20028;-90
2022/12/22 17:20:54;;;;;;;503.98;39.10;;;;;;;;;;4909310;29;20024;-91
2022/12/22 17:23:30;;;;;;;478.63;32.85;;;;;;;;;;4927891;29;20102;-90
2022/12/22 17:25:57;;;;;;;328.25;24.70;;;;;;;;;;4915700;29;20067;-92
2022/12/22 17:28:23;;;;;;;632.20;46.83;;;;;;;;;;4928538;29;20031;-90
2022/12/22 17:30:54;;;;;;;554.25;40.67;;;;;;;;;;4912960;29;20065;-91
2022/12/22 17:33:25;;;;;;;458.98;32.88;;;;;;;;;;4909847;29;20032;-92
2022/12/22 17:36:13;;;;;;;349.60;25.38;;;;;;;;;;4887285;29;20039;-92
2022/12/22 17:38:48;;;;;;;270.05;22.42;;;;;;;;;;4879006;29;20072;-92
2022/12/22 17:41:20;;;;;;;170.73;16.20;;;;;;;;;;4887850;29;20028;-93
2022/12/22 17:43:56;;;;;;;203.73;17.35;;;;;;;;;;4888330;29;20044;-92
2022/12/22 17:46:31;;;;;;;150.15;14.73;;;;;;;;;;4870560;29;20072;-92
2022/12/22 17:49:02;;;;;;;71.63;11.63;;;;;;;;;;4887862;29;20027;-92
2022/12/22 17:51:28;;;;;;;113.55;13.80;;;;;;;;;;4887254;29;20047;-93
2022/12/22 17:53:56;;;;;;;149.05;14.70;;;;;;;;;;4890120;29;20025;-93
2022/12/22 17:59:29;;;;;;;275.02;21.25;;;;;;;;;;4890055;29;20105;-92
2022/12/22 18:01:54;;;;;;;407.25;27.67;;;;;;;;;;4912711;29;20039;-93
2022/12/22 18:04:23;;;;;;;493.98;33.72;;;;;;;;;;4914158;29;20095;-92
2022/12/22 18:06:51;;;;;;;322.83;23.27;;;;;;;;;;4932175;29;20035;-92
2022/12/22 18:09:22;;;;;;;432.80;28.05;;;;;;;;;;4929674;29;20046;-92
2022/12/22 18:11:47;;;;;;;364.85;26.15;;;;;;;;;;4932085;29;20030;-92
2022/12/22 18:14:26;;;;;;;381.67;26.00;;;;;;;;;;4929634;29;20040;-92
2022/12/22 18:16:53;;;;;;;386.85;26.05;;;;;;;;;;4913147;29;20091;-91
2022/12/22 18:19:18;;;;;;;331.10;23.90;;;;;;;;;;4904865;29;20092;-91
2022/12/22 18:21:44;;;;;;;295.40;21.80;;;;;;;;;;4912597;29;20511;-93
2022/12/22 18:24:14;;;;;;;92.10;11.65;;;;;;;;;;4914888;29;20024;-93
2022/12/22 18:26:39;;;;;;;66.93;9.48;;;;;;;;;;4916205;29;20019;-92
2022/12/22 18:29:11;;;;;;;129.13;11.88;;;;;;;;;;4918639;29;20036;-91
2022/12/22 18:31:42;;;;;;;208.85;15.90;;;;;;;;;;4917712;29;20079;-91
2022/12/22 18:34:10;;;;;;;106.53;10.90;;;;;;;;;;4921288;29;20031;-91